Time;durP1;ratioP1;P1;durP2;ratioP2;P2;SDS_P1;SDS_P2;PMS_P1;PMS_P2;Temp;Humidity;BMP_temperature;BMP_pressure;BME280_temperature;BME280_humidity;BME280_pressure;Samples;Min_cycle;Max_cycle;Signal;HPM_P1;HPM_P2
2024/03/25 00:00:39;;;;;;;3.30;0.80;;;;;;;5.97;100.00;99979.28;6274805;28;20175;-77
2024/03/25 00:03:40;;;;;;;2.40;0.90;;;;;;;6.02;100.00;99980.75;6263182;28;20053;-78
2024/03/25 00:06:40;;;;;;;5.88;1.25;;;;;;;6.01;100.00;99992.09;6250251;28;20045;-78
2024/03/25 00:09:43;;;;;;;8.80;0.73;;;;;;;6.13;100.00;99993.28;6249858;28;20047;-78
2024/03/25 00:12:44;;;;;;;6.53;1.25;;;;;;;6.13;100.00;99997.66;6250381;28;20069;-77
2024/03/25 00:15:45;;;;;;;4.05;1.85;;;;;;;6.14;100.00;100010.63;6249116;28;20438;-78
2024/03/25 00:18:46;;;;;;;6.78;1.55;;;;;;;6.04;100.00;100005.00;6250421;28;20060;-78
2024/03/25 00:21:47;;;;;;;6.03;1.92;;;;;;;6.14;100.00;100010.63;6249702;28;20045;-78
2024/03/25 00:24:49;;;;;;;9.00;2.05;;;;;;;6.12;100.00;100019.44;6250181;28;20053;-78
2024/03/25 00:27:50;;;;;;;2.83;1.42;;;;;;;6.18;100.00;100021.78;6250115;28;20430;-78
2024/03/25 00:30:50;;;;;;;9.60;1.73;;;;;;;6.19;100.00;100029.53;6249800;28;20042;-77
2024/03/25 00:33:52;;;;;;;7.10;1.98;;;;;;;6.19;100.00;100023.47;6250035;28;20418;-78
2024/03/25 00:36:53;;;;;;;7.60;1.92;;;;;;;6.20;100.00;100020.78;6249596;28;20565;-77
2024/03/25 00:39:55;;;;;;;3.65;1.75;;;;;;;6.09;100.00;100031.72;6249720;28;20560;-79
2024/03/25 00:42:57;;;;;;;4.00;1.38;;;;;;;6.23;100.00;100036.28;6249410;28;20049;-78
2024/03/25 00:45:57;;;;;;;11.50;1.77;;;;;;;6.20;100.00;100035.59;6249133;28;20052;-78
2024/03/25 00:48:58;;;;;;;5.75;1.35;;;;;;;6.14;100.00;100031.50;6249622;28;20350;-78
2024/03/25 00:51:59;;;;;;;4.25;1.05;;;;;;;6.20;100.00;100040.81;6249334;28;20357;-78
2024/03/25 00:55:02;;;;;;;6.88;1.50;;;;;;;6.25;100.00;100042.28;6249352;28;20102;-77
2024/03/25 00:58:03;;;;;;;8.40;1.55;;;;;;;6.22;100.00;100049.38;6250451;28;20053;-79
2024/03/25 01:01:05;;;;;;;3.47;1.50;;;;;;;6.23;100.00;100051.09;6250465;28;20049;-78
2024/03/25 01:04:05;;;;;;;7.60;1.60;;;;;;;6.27;100.00;100047.44;6250123;28;20050;-78
2024/03/25 01:07:06;;;;;;;5.80;1.40;;;;;;;6.26;100.00;100045.72;6249275;28;20072;-78
2024/03/25 01:10:09;;;;;;;7.10;1.80;;;;;;;6.33;100.00;100063.63;6249234;28;20046;-79
2024/03/25 01:13:10;;;;;;;4.40;1.77;;;;;;;6.37;100.00;100048.69;6250254;28;20064;-78
2024/03/25 01:16:11;;;;;;;6.72;1.38;;;;;;;6.31;100.00;100060.28;6249759;28;20049;-78
2024/03/25 01:19:11;;;;;;;6.63;1.60;;;;;;;6.15;100.00;100058.44;6244769;28;20041;-78
2024/03/25 01:22:13;;;;;;;3.22;1.70;;;;;;;5.99;100.00;100053.91;6246205;28;20053;-77
2024/03/25 01:25:15;;;;;;;5.40;1.50;;;;;;;5.95;100.00;100049.78;6250549;28;20061;-77
2024/03/25 01:28:16;;;;;;;5.07;1.70;;;;;;;5.85;100.00;100056.25;6254081;28;20049;-77
2024/03/25 01:31:17;;;;;;;5.85;1.65;;;;;;;5.74;100.00;100053.31;6253540;28;20042;-78
2024/03/25 01:34:18;;;;;;;4.68;1.48;;;;;;;5.72;100.00;100058.59;6253823;28;20358;-77
2024/03/25 01:37:18;;;;;;;7.95;1.77;;;;;;;5.70;100.00;100056.97;6253208;28;20053;-77
2024/03/25 01:40:21;;;;;;;6.50;1.52;;;;;;;5.64;100.00;100055.47;6253306;28;20052;-77
2024/03/25 01:43:22;;;;;;;8.63;2.20;;;;;;;5.58;100.00;100064.38;6253466;28;20465;-78
2024/03/25 01:46:23;;;;;;;10.55;2.08;;;;;;;5.56;100.00;100061.00;6253395;28;20049;-77
2024/03/25 01:49:24;;;;;;;3.60;1.58;;;;;;;5.54;100.00;100056.78;6253349;28;20048;-77
2024/03/25 01:52:26;;;;;;;7.68;1.90;;;;;;;5.55;100.00;100063.69;6253007;28;20053;-78
2024/03/25 01:55:30;;;;;;;6.95;1.88;;;;;;;5.51;100.00;100068.19;6253177;28;20056;-77
2024/03/25 01:58:32;;;;;;;4.32;1.77;;;;;;;5.45;100.00;100059.78;6253729;28;20050;-78
2024/03/25 02:01:32;;;;;;;4.72;1.60;;;;;;;5.55;100.00;100056.72;6252911;28;20460;-78
2024/03/25 02:04:34;;;;;;;9.75;0.98;;;;;;;5.50;100.00;100071.72;6253368;28;20053;-78
2024/03/25 02:07:36;;;;;;;5.40;1.52;;;;;;;5.52;100.00;100067.28;6252861;28;20061;-78
2024/03/25 02:10:39;;;;;;;6.82;1.58;;;;;;;5.53;100.00;100075.94;6252455;28;20453;-78
2024/03/25 02:13:40;;;;;;;6.40;1.65;;;;;;;5.56;100.00;100081.03;6253201;28;20056;-78
2024/03/25 02:16:41;;;;;;;8.25;2.05;;;;;;;5.53;100.00;100076.78;6252544;28;20108;-78
2024/03/25 02:19:42;;;;;;;7.53;1.67;;;;;;;5.47;100.00;100084.03;6252432;28;20052;-78
2024/03/25 02:22:43;;;;;;;3.75;1.27;;;;;;;5.47;100.00;100092.69;6252821;28;20053;-78
2024/03/25 02:25:50;;;;;;;2.75;1.48;;;;;;;5.51;100.00;100091.63;6252587;28;20080;-79
2024/03/25 02:28:50;;;;;;;9.20;1.77;;;;;;;5.53;100.00;100092.41;6252377;28;20057;-77
2024/03/25 02:31:53;;;;;;;9.30;1.50;;;;;;;5.65;100.00;100093.66;6252029;28;20052;-77
2024/03/25 02:34:54;;;;;;;4.32;1.70;;;;;;;5.62;100.00;100096.38;6252004;28;20053;-78
2024/03/25 02:37:56;;;;;;;8.27;1.65;;;;;;;5.57;100.00;100099.19;6251343;28;20564;-77
2024/03/25 02:40:58;;;;;;;3.25;1.48;;;;;;;5.52;100.00;100102.91;6251429;28;20343;-77
2024/03/25 02:44:00;;;;;;;7.68;1.50;;;;;;;5.47;100.00;100104.88;6251923;28;20057;-77
2024/03/25 02:47:01;;;;;;;6.88;1.92;;;;;;;5.52;100.00;100105.50;6251911;28;20041;-77
2024/03/25 02:50:03;;;;;;;7.85;1.40;;;;;;;5.55;100.00;100113.22;6251491;28;20053;-77
2024/03/25 02:53:03;;;;;;;7.68;1.70;;;;;;;5.58;100.00;100118.28;6251896;28;20049;-77
2024/03/25 02:56:06;;;;;;;7.85;1.30;;;;;;;5.69;100.00;100123.03;6251492;28;20065;-78
2024/03/25 02:59:06;;;;;;;6.57;1.90;;;;;;;5.71;100.00;100118.59;6251641;28;20076;-77
2024/03/25 03:02:08;;;;;;;2.45;1.30;;;;;;;5.67;100.00;100117.88;6251284;28;20053;-77
2024/03/25 03:05:08;;;;;;;8.32;2.08;;;;;;;5.69;100.00;100126.50;6249383;28;20053;-77
2024/03/25 03:08:10;;;;;;;9.43;1.92;;;;;;;5.63;100.00;100133.72;6251685;28;20057;-77
2024/03/25 03:11:11;;;;;;;5.97;1.65;;;;;;;5.70;100.00;100136.00;6250992;28;20042;-78
2024/03/25 03:14:13;;;;;;;3.80;1.10;;;;;;;5.73;100.00;100138.50;6255118;28;20041;-75
2024/03/25 03:17:14;;;;;;;3.53;1.58;;;;;;;5.70;100.00;100140.38;6254162;28;20056;-75
2024/03/25 03:20:15;;;;;;;5.13;1.15;;;;;;;5.73;100.00;100141.09;6250581;28;20331;-76
2024/03/25 03:23:16;;;;;;;5.30;1.58;;;;;;;5.66;100.00;100144.88;6251060;28;20061;-75
2024/03/25 03:26:19;;;;;;;6.43;1.67;;;;;;;5.64;100.00;100148.47;6251087;28;20052;-75
2024/03/25 03:29:20;;;;;;;8.15;1.65;;;;;;;5.69;100.00;100155.16;6251021;28;20430;-74
2024/03/25 03:32:20;;;;;;;4.78;1.30;;;;;;;5.59;100.00;100151.25;6250341;28;20049;-74
2024/03/25 03:35:22;;;;;;;9.05;2.17;;;;;;;5.66;100.00;100157.06;6250599;28;20060;-74
2024/03/25 03:38:22;;;;;;;10.85;1.63;;;;;;;5.64;100.00;100156.28;6250733;28;20053;-75
2024/03/25 03:41:25;;;;;;;4.85;1.70;;;;;;;5.63;100.00;100160.63;6250225;28;20351;-74
2024/03/25 03:44:26;;;;;;;7.05;1.65;;;;;;;5.59;100.00;100161.69;6250594;28;20057;-74
2024/03/25 03:47:26;;;;;;;1.42;1.00;;;;;;;5.59;100.00;100169.50;6250646;28;20057;-73
2024/03/25 03:50:28;;;;;;;8.23;1.67;;;;;;;5.67;100.00;100169.16;6249781;28;20088;-76
2024/03/25 03:53:29;;;;;;;8.80;1.67;;;;;;;5.66;100.00;100163.09;6250630;28;20054;-75
2024/03/25 03:56:32;;;;;;;12.73;2.90;;;;;;;5.67;100.00;100166.56;6250277;28;20057;-75
2024/03/25 03:59:32;;;;;;;10.73;2.30;;;;;;;5.58;100.00;100167.78;6250437;28;20052;-75
2024/03/25 04:02:33;;;;;;;13.07;3.03;;;;;;;5.57;100.00;100169.56;6237978;28;20420;-74
2024/03/25 04:05:34;;;;;;;11.27;2.47;;;;;;;5.55;100.00;100166.19;6250041;28;20045;-75
2024/03/25 04:08:35;;;;;;;10.48;2.60;;;;;;;5.52;100.00;100173.28;6250402;28;20474;-75
2024/03/25 04:11:37;;;;;;;6.28;1.98;;;;;;;5.51;100.00;100168.97;6249458;28;20453;-75
2024/03/25 04:14:39;;;;;;;6.38;2.08;;;;;;;5.52;100.00;100171.50;6250229;28;20053;-75
2024/03/25 04:17:39;;;;;;;12.00;2.03;;;;;;;5.50;100.00;100177.72;6249991;28;20211;-75
2024/03/25 04:20:42;;;;;;;7.18;2.10;;;;;;;5.47;100.00;100180.44;6249864;28;20045;-75
2024/03/25 04:23:44;;;;;;;10.10;2.17;;;;;;;5.49;100.00;100184.66;6249883;28;20365;-75
2024/03/25 04:26:46;;;;;;;10.00;2.13;;;;;;;5.56;100.00;100180.06;6250019;28;20064;-75
2024/03/25 04:29:47;;;;;;;11.38;1.85;;;;;;;5.57;100.00;100179.97;6249363;28;20434;-75
2024/03/25 04:32:48;;;;;;;11.63;1.85;;;;;;;5.51;100.00;100185.47;6249823;28;20049;-75
2024/03/25 04:35:49;;;;;;;9.80;2.45;;;;;;;5.53;100.00;100190.59;6249329;28;20545;-75
